createdAt,value
2022-09-02T00:01:15.828Z,101252.59
2022-09-02T00:03:44.391Z,101260.78
2022-09-02T00:06:12.566Z,101253.28
2022-09-02T00:08:42.216Z,101250.97
2022-09-02T00:11:14.818Z,101246.63
2022-09-02T00:13:43.586Z,101246.53
2022-09-02T00:16:11.911Z,101254.03
2022-09-02T00:18:40.279Z,101243.91
2022-09-02T00:21:14.192Z,101239.53
2022-09-02T00:23:44.315Z,101246.72
2022-09-02T00:26:13.271Z,101240.97
2022-09-02T00:28:48.873Z,101238.22
2022-09-02T00:31:23.360Z,101240.78
2022-09-02T00:33:51.943Z,101242.22
2022-09-02T00:36:19.880Z,101236.84
2022-09-02T00:38:49.105Z,101240.19
2022-09-02T00:41:16.858Z,101235.16
2022-09-02T00:43:47.249Z,101237.88
2022-09-02T00:46:16.830Z,101231.03
2022-09-02T00:48:48.171Z,101230.59
2022-09-02T00:51:16.959Z,101236.81
2022-09-02T00:53:46.340Z,101222.06
2022-09-02T00:56:19.266Z,101224.53
2022-09-02T00:58:47.438Z,101225.19
2022-09-02T01:01:15.279Z,101222.66
2022-09-02T01:03:43.680Z,101228.09
2022-09-02T01:06:15.256Z,101217.88
2022-09-02T01:08:45.744Z,101220.84
2022-09-02T01:11:16.313Z,101216.50
2022-09-02T01:13:44.391Z,101216.16
2022-09-02T01:16:15.047Z,101223.41
2022-09-02T01:18:44.331Z,101219.72
2022-09-02T01:21:12.166Z,101214.25
2022-09-02T01:23:41.176Z,101221.94
2022-09-02T01:26:10.750Z,101217.84
2022-09-02T01:28:39.178Z,101215.78
2022-09-02T01:31:07.078Z,101211.63
2022-09-02T01:33:34.991Z,101218.84
2022-09-02T01:36:04.543Z,101214.06
2022-09-02T01:38:32.933Z,101210.50
2022-09-02T01:41:02.012Z,101209.75
2022-09-02T01:43:30.186Z,101204.47
2022-09-02T01:45:59.607Z,101213.16
2022-09-02T01:48:27.279Z,101210.91
2022-09-02T01:50:56.856Z,101198.41
2022-09-02T01:53:24.967Z,101200.81
2022-09-02T01:55:52.655Z,101208.66
2022-09-02T01:58:21.871Z,101204.59
2022-09-02T02:00:49.455Z,101200.66
2022-09-02T02:03:17.173Z,101205.06
2022-09-02T02:05:45.054Z,101195.69
2022-09-02T02:08:12.776Z,101197.00
2022-09-02T02:10:42.582Z,101192.66
2022-09-02T02:13:10.917Z,101201.66
2022-09-02T02:15:41.390Z,101200.06
2022-09-02T02:18:09.339Z,101201.06
2022-09-02T02:20:37.360Z,101201.44
2022-09-02T02:23:05.857Z,101200.91
2022-09-02T02:25:33.624Z,101201.75
2022-09-02T02:28:02.557Z,101198.13
2022-09-02T02:30:30.444Z,101202.94
2022-09-02T02:32:59.432Z,101195.69
2022-09-02T02:35:27.293Z,101200.91
2022-09-02T02:37:55.384Z,101202.78
2022-09-02T02:40:25.289Z,101192.28
2022-09-02T02:42:54.185Z,101199.25
2022-09-02T02:45:22.448Z,101194.53
2022-09-02T02:47:51.222Z,101185.84
2022-09-02T02:50:21.518Z,101182.31
2022-09-02T02:52:49.782Z,101186.25
2022-09-02T02:55:17.858Z,101178.31
2022-09-02T02:57:46.008Z,101191.72
2022-09-02T03:00:16.914Z,101187.94
2022-09-02T03:02:44.652Z,101184.72
2022-09-02T03:05:14.471Z,101187.41
2022-09-02T03:07:43.885Z,101188.97
2022-09-02T03:10:13.463Z,101181.03
2022-09-02T03:12:41.519Z,101181.59
2022-09-02T03:15:11.219Z,101187.44
2022-09-02T03:17:39.075Z,101181.03
2022-09-02T03:20:08.304Z,101185.66
2022-09-02T03:22:38.718Z,101181.81
2022-09-02T03:25:09.216Z,101186.38
2022-09-02T03:27:38.158Z,101178.88
2022-09-02T03:30:07.816Z,101185.47
2022-09-02T03:32:35.421Z,101184.00
2022-09-02T03:35:03.102Z,101180.50
2022-09-02T03:37:30.767Z,101184.69
2022-09-02T03:39:58.376Z,101175.28
2022-09-02T03:42:27.412Z,101173.19
2022-09-02T03:44:55.078Z,101181.03
2022-09-02T03:47:24.447Z,101183.59
2022-09-02T03:49:52.641Z,101172.03
2022-09-02T03:52:20.236Z,101173.41
2022-09-02T03:54:47.984Z,101167.16
2022-09-02T03:57:15.774Z,101173.06
2022-09-02T03:59:44.759Z,101166.06
2022-09-02T04:02:12.872Z,101162.81
2022-09-02T04:04:40.615Z,101162.66
2022-09-02T04:07:08.363Z,101163.50
2022-09-02T04:09:35.975Z,101156.75
2022-09-02T04:12:04.347Z,101158.75
2022-09-02T04:14:32.175Z,101157.84
2022-09-02T04:17:01.125Z,101156.13
2022-09-02T04:19:28.687Z,101160.44
2022-09-02T04:21:56.335Z,101153.94
2022-09-02T04:24:24.298Z,101155.09
2022-09-02T04:26:51.891Z,101151.75
2022-09-02T04:29:20.299Z,101153.75
2022-09-02T04:31:47.942Z,101150.06
2022-09-02T04:34:16.890Z,101146.16
2022-09-02T04:36:44.687Z,101146.63
2022-09-02T04:39:12.769Z,101148.50
2022-09-02T04:41:40.363Z,101151.13
2022-09-02T04:44:09.444Z,101147.00
2022-09-02T04:46:37.163Z,101157.06
2022-09-02T04:49:05.803Z,101151.44
2022-09-02T04:51:34.775Z,101149.94
2022-09-02T04:54:02.623Z,101147.09
2022-09-02T04:56:32.119Z,101153.06
2022-09-02T04:59:00.018Z,101147.53
2022-09-02T05:01:30.358Z,101148.00
2022-09-02T05:03:58.080Z,101142.03
2022-09-02T05:06:28.303Z,101150.66
2022-09-02T05:08:59.005Z,101153.28
2022-09-02T05:11:28.481Z,101147.09
2022-09-02T05:13:58.037Z,101142.66
2022-09-02T05:16:28.787Z,101147.38
2022-09-02T05:18:56.772Z,101152.06
2022-09-02T05:21:24.654Z,101150.75
2022-09-02T05:23:54.636Z,101158.75
2022-09-02T05:26:23.999Z,101151.19
2022-09-02T05:28:51.756Z,101143.25
2022-09-02T05:31:21.301Z,101147.28
2022-09-02T05:33:49.331Z,101138.75
2022-09-02T05:36:19.554Z,101137.19
2022-09-02T05:38:47.720Z,101135.19
2022-09-02T05:41:19.629Z,101137.81
2022-09-02T05:43:48.576Z,101144.50
2022-09-02T05:46:18.844Z,101138.97
2022-09-02T05:49:04.925Z,101136.41
2022-09-02T05:51:33.506Z,101142.28
2022-09-02T05:54:02.026Z,101144.22
2022-09-02T05:56:29.680Z,101139.53
2022-09-02T05:59:00.818Z,101139.94
2022-09-02T06:01:30.052Z,101146.44
2022-09-02T06:03:58.821Z,101144.41
2022-09-02T06:06:26.406Z,101141.06
2022-09-02T06:08:54.006Z,101136.34
2022-09-02T06:11:22.119Z,101133.78
2022-09-02T06:13:50.034Z,101139.56
2022-09-02T06:16:20.996Z,101137.19
2022-09-02T06:18:50.752Z,101136.69
2022-09-02T06:21:20.706Z,101131.72
2022-09-02T06:23:49.108Z,101130.41
2022-09-02T06:26:19.228Z,101111.59
2022-09-02T06:28:46.935Z,101123.72
2022-09-02T06:31:16.741Z,101110.91
2022-09-02T06:33:47.319Z,101107.69
2022-09-02T06:36:16.594Z,101101.34
2022-09-02T06:38:46.203Z,101105.16
2022-09-02T06:41:16.187Z,101108.72
2022-09-02T06:43:44.018Z,101107.69
2022-09-02T06:46:16.767Z,101108.16
2022-09-02T06:48:45.938Z,101111.84
2022-09-02T06:51:17.606Z,101110.34
2022-09-02T06:53:45.255Z,101108.53
2022-09-02T06:56:12.912Z,101111.66
2022-09-02T06:58:40.779Z,101105.31
2022-09-02T07:01:08.526Z,101107.97
2022-09-02T07:03:53.659Z,101112.84
2022-09-02T07:06:22.660Z,101111.16
2022-09-02T07:08:50.695Z,101101.84
2022-09-02T07:11:20.003Z,101105.34
2022-09-02T07:13:47.947Z,101107.59
2022-09-02T07:16:20.439Z,101107.19
2022-09-02T07:18:54.677Z,101108.19
2022-09-02T07:21:23.687Z,101116.84
2022-09-02T07:23:51.274Z,101098.81
2022-09-02T07:26:19.177Z,101107.31
2022-09-02T07:28:47.243Z,101102.31
2022-09-02T07:31:16.737Z,101092.78
2022-09-02T07:33:45.263Z,101100.03
2022-09-02T07:36:21.473Z,101099.19
2022-09-02T07:38:50.505Z,101102.69
2022-09-02T07:41:18.091Z,101095.66
2022-09-02T07:43:49.609Z,101088.44
2022-09-02T07:46:19.359Z,101090.03
2022-09-02T07:48:50.121Z,101098.28
2022-09-02T07:51:18.352Z,101097.50
2022-09-02T07:53:46.409Z,101092.53
2022-09-02T07:56:15.415Z,101090.38
2022-09-02T07:58:44.228Z,101094.72
2022-09-02T08:01:12.284Z,101092.69
2022-09-02T08:03:41.710Z,101086.47
2022-09-02T08:06:10.331Z,101097.19
2022-09-02T08:08:38.040Z,101096.44
2022-09-02T08:11:07.346Z,101091.56
2022-09-02T08:13:36.823Z,101090.13
2022-09-02T08:16:05.415Z,101086.16
2022-09-02T08:18:33.651Z,101090.88
2022-09-02T08:21:01.714Z,101092.38
2022-09-02T08:23:37.709Z,101092.72
2022-09-02T08:26:06.432Z,101083.63
2022-09-02T08:28:34.501Z,101084.84
2022-09-02T08:31:07.573Z,101079.78
2022-09-02T08:33:35.214Z,101084.88
2022-09-02T08:36:05.046Z,101087.28
2022-09-02T08:38:32.735Z,101083.63
2022-09-02T08:41:00.782Z,101074.78
2022-09-02T08:43:32.684Z,101079.00
2022-09-02T08:46:05.247Z,101081.44
2022-09-02T08:48:38.987Z,101085.63
2022-09-02T08:51:10.074Z,101078.53
2022-09-02T08:53:42.171Z,101073.53
2022-09-02T08:56:12.688Z,101066.44
2022-09-02T08:58:42.298Z,101066.91
2022-09-02T09:01:16.742Z,101062.47
2022-09-02T09:04:01.016Z,101067.28
2022-09-02T09:06:35.578Z,101062.16
2022-09-02T09:09:07.960Z,101050.69
2022-09-02T09:11:42.738Z,101056.47
2022-09-02T09:14:20.420Z,101062.06
2022-09-02T09:16:52.271Z,101043.19
2022-09-02T09:19:26.539Z,101053.53
2022-09-02T09:21:55.483Z,101048.03
2022-09-02T09:24:27.443Z,101050.72
2022-09-02T09:26:55.826Z,101044.44
2022-09-02T09:29:23.429Z,101044.56
2022-09-02T09:31:58.132Z,101035.41
2022-09-02T09:34:56.475Z,101035.28
2022-09-02T09:37:35.218Z,101024.50
2022-09-02T09:40:22.916Z,101024.00
2022-09-02T09:42:55.244Z,101022.03
2022-09-02T09:45:28.445Z,101021.03
2022-09-02T09:48:17.585Z,101025.00
2022-09-02T09:50:47.490Z,101020.19
2022-09-02T09:53:16.255Z,101017.38
2022-09-02T09:55:52.979Z,101012.84
2022-09-02T09:58:21.176Z,101010.59
2022-09-02T10:00:48.853Z,101012.44
2022-09-02T10:03:23.405Z,101006.38
2022-09-02T10:05:55.271Z,101004.41
2022-09-02T10:08:24.407Z,101001.69
2022-09-02T10:11:00.540Z,100994.59
2022-09-02T10:13:30.558Z,101000.06
2022-09-02T10:16:14.919Z,100994.38
2022-09-02T10:18:49.199Z,100988.72
2022-09-02T10:21:28.488Z,100991.09
2022-09-02T10:24:00.635Z,100984.56
2022-09-02T10:26:35.439Z,100976.06
2022-09-02T10:29:36.259Z,100977.97
2022-09-02T10:32:24.362Z,100971.50
2022-09-02T10:35:01.309Z,100961.31
2022-09-02T10:37:36.896Z,100970.53
2022-09-02T10:40:10.328Z,100953.53
2022-09-02T10:42:46.541Z,100961.06
2022-09-02T10:45:18.093Z,100949.34
2022-09-02T10:50:38.846Z,100954.97
2022-09-02T10:53:33.788Z,100954.81
2022-09-02T10:56:03.743Z,100954.66
2022-09-02T10:58:40.495Z,100944.59
2022-09-02T11:01:09.408Z,100947.25
2022-09-02T11:03:42.042Z,100944.94
2022-09-02T11:06:13.971Z,100939.00
2022-09-02T11:08:46.879Z,100947.78
2022-09-02T11:11:21.347Z,100942.72
2022-09-02T11:13:58.535Z,100940.47
2022-09-02T11:16:30.105Z,100926.56
2022-09-02T11:19:02.100Z,100925.41
2022-09-02T11:21:38.413Z,100923.78
2022-09-02T11:24:10.067Z,100926.56
2022-09-02T11:26:40.448Z,100924.56
2022-09-02T11:29:13.839Z,100923.66
2022-09-02T11:31:45.261Z,100918.59
2022-09-02T11:34:35.131Z,100914.94
2022-09-02T11:37:04.343Z,100912.88
2022-09-02T11:39:54.164Z,100908.81
2022-09-02T11:42:36.830Z,100909.03
2022-09-02T11:45:40.542Z,100902.44
2022-09-02T11:48:29.372Z,100904.41
2022-09-02T11:51:06.796Z,100904.91
2022-09-02T11:53:38.799Z,100901.72
2022-09-02T11:56:15.961Z,100902.59
2022-09-02T11:58:44.919Z,100900.78
2022-09-02T12:01:34.072Z,100895.28
2022-09-02T12:07:50.678Z,100894.03
2022-09-02T12:10:51.712Z,100889.72
2022-09-02T12:13:34.422Z,100875.69
2022-09-02T12:16:37.143Z,100876.22
2022-09-02T12:19:28.931Z,100870.88
2022-09-02T12:22:33.562Z,100858.97
2022-09-02T12:25:03.394Z,100874.19
2022-09-02T12:27:34.361Z,100859.06
2022-09-02T12:30:02.012Z,100865.16
2022-09-02T12:33:12.453Z,100851.94
2022-09-02T12:35:57.619Z,100844.09
2022-09-02T12:38:34.063Z,100850.91
2022-09-02T12:41:21.988Z,100851.09
2022-09-02T12:44:14.875Z,100845.47
2022-09-02T12:46:57.249Z,100841.09
2022-09-02T12:49:48.349Z,100845.47
2022-09-02T12:52:40.890Z,100835.34
2022-09-02T12:55:12.176Z,100834.84
2022-09-02T12:57:42.304Z,100828.44
2022-09-02T13:00:14.623Z,100838.41
2022-09-02T13:02:53.091Z,100829.50
2022-09-02T13:05:25.929Z,100836.22
2022-09-02T13:08:17.305Z,100833.47
2022-09-02T13:11:21.216Z,100820.38
2022-09-02T13:14:33.780Z,100817.00
2022-09-02T13:17:35.727Z,100808.97
2022-09-02T13:20:29.948Z,100813.97
2022-09-02T13:23:12.163Z,100811.78
2022-09-02T13:26:01.420Z,100814.53
2022-09-02T13:29:00.095Z,100808.63
2022-09-02T13:31:29.332Z,100812.84
2022-09-02T13:34:00.919Z,100812.53
2022-09-02T13:36:33.584Z,100816.22
2022-09-02T13:39:12.374Z,100813.59
2022-09-02T13:41:40.000Z,100812.53
2022-09-02T13:44:09.295Z,100816.84
2022-09-02T13:46:46.610Z,100810.81
2022-09-02T13:49:22.659Z,100805.63
2022-09-02T13:51:51.475Z,100800.72
2022-09-02T13:54:27.553Z,100789.50
2022-09-02T13:56:55.503Z,100792.34
2022-09-02T13:59:33.701Z,100790.25
2022-09-02T14:02:28.242Z,100776.16
2022-09-02T14:04:59.156Z,100780.13
2022-09-02T14:07:32.966Z,100779.09
2022-09-02T14:10:02.938Z,100778.53
2022-09-02T14:12:33.581Z,100778.81
2022-09-02T14:15:01.954Z,100766.06
2022-09-02T14:17:30.914Z,100773.19
2022-09-02T14:20:19.126Z,100778.28
2022-09-02T14:22:53.803Z,100766.94
2022-09-02T14:25:26.685Z,100770.94
2022-09-02T14:27:56.176Z,100773.91
2022-09-02T14:30:34.496Z,100766.03
2022-09-02T14:33:20.657Z,100760.88
2022-09-02T14:36:01.995Z,100764.13
2022-09-02T14:38:31.130Z,100761.75
2022-09-02T14:41:12.331Z,100764.22
2022-09-02T14:43:45.382Z,100757.09
2022-09-02T14:46:23.338Z,100759.22
2022-09-02T14:48:57.398Z,100750.13
2022-09-02T14:51:29.204Z,100759.16
2022-09-02T14:53:56.809Z,100751.78
2022-09-02T14:56:49.378Z,100742.56
2022-09-02T14:59:21.096Z,100750.56
2022-09-02T15:01:50.847Z,100751.22
2022-09-02T15:04:20.463Z,100745.03
2022-09-02T15:06:48.902Z,100739.94
2022-09-02T15:09:17.239Z,100737.25
2022-09-02T15:11:46.963Z,100730.25
2022-09-02T15:14:14.655Z,100723.69
2022-09-02T15:16:42.248Z,100730.53
2022-09-02T15:19:09.818Z,100728.03
2022-09-02T15:21:38.776Z,100726.59
2022-09-02T15:24:06.618Z,100721.22
2022-09-02T15:26:34.236Z,100730.97
2022-09-02T15:29:03.347Z,100726.91
2022-09-02T15:31:31.162Z,100728.94
2022-09-02T15:33:59.243Z,100726.09
2022-09-02T15:36:27.699Z,100720.38
2022-09-02T15:38:56.659Z,100712.84
2022-09-02T15:41:27.259Z,100712.59
2022-09-02T15:43:55.142Z,100710.16
2022-09-02T15:46:27.396Z,100708.13
2022-09-02T15:48:59.032Z,100717.63
2022-09-02T15:51:29.835Z,100711.13
2022-09-02T15:53:59.958Z,100705.69
2022-09-02T15:56:29.903Z,100710.91
2022-09-02T15:58:58.904Z,100705.00
2022-09-02T16:01:27.441Z,100701.06
2022-09-02T16:03:55.198Z,100704.50
2022-09-02T16:06:23.064Z,100697.13
2022-09-02T16:08:50.758Z,100701.69
2022-09-02T16:11:19.776Z,100697.44
2022-09-02T16:13:47.436Z,100681.16
2022-09-02T16:16:15.476Z,100689.06
2022-09-02T16:18:43.841Z,100685.38
2022-09-02T16:21:13.255Z,100685.75
2022-09-02T16:23:40.903Z,100682.44
2022-09-02T16:26:14.792Z,100680.25
2022-09-02T16:28:45.116Z,100675.31
2022-09-02T16:31:14.491Z,100671.56
2022-09-02T16:33:43.979Z,100681.66
2022-09-02T16:36:12.201Z,100671.09
2022-09-02T16:38:39.830Z,100664.09
2022-09-02T16:41:07.393Z,100666.59
2022-09-02T16:43:37.291Z,100666.25
2022-09-02T16:46:06.544Z,100665.56
2022-09-02T16:48:34.948Z,100660.53
2022-09-02T16:51:04.160Z,100662.25
2022-09-02T16:53:32.203Z,100660.56
2022-09-02T16:55:59.799Z,100658.38
2022-09-02T16:58:27.571Z,100659.56
2022-09-02T17:00:55.209Z,100653.50
2022-09-02T17:03:24.873Z,100661.75
2022-09-02T17:05:52.606Z,100655.19
2022-09-02T17:08:20.171Z,100649.81
2022-09-02T17:10:47.744Z,100649.63
2022-09-02T17:13:15.383Z,100653.34
2022-09-02T17:15:42.999Z,100651.16
2022-09-02T17:18:10.595Z,100651.13
2022-09-02T17:20:40.362Z,100648.34
2022-09-02T17:23:08.621Z,100645.50
2022-09-02T17:25:36.219Z,100654.69
2022-09-02T17:28:04.142Z,100648.84
2022-09-02T17:30:31.894Z,100650.78
2022-09-02T17:32:59.557Z,100654.00
2022-09-02T17:35:27.143Z,100659.25
2022-09-02T17:37:56.503Z,100659.25
2022-09-02T17:40:41.887Z,100655.97
2022-09-02T17:43:09.462Z,100660.66
2022-09-02T17:45:37.409Z,100661.69
2022-09-02T17:48:34.250Z,100653.72
2022-09-02T17:50:52.960Z,100658.00
2022-09-02T17:53:23.398Z,100650.88
2022-09-02T17:55:51.307Z,100652.81
2022-09-02T17:58:22.721Z,100649.81
2022-09-02T18:00:52.818Z,100652.09
2022-09-02T18:03:37.370Z,100644.47
2022-09-02T18:06:12.588Z,100652.59
2022-09-02T18:08:47.286Z,100655.59
2022-09-02T18:11:15.005Z,100652.50
2022-09-02T18:13:54.558Z,100650.94
2022-09-02T18:16:31.971Z,100660.16
2022-09-02T18:19:16.249Z,100666.53
2022-09-02T18:21:52.117Z,100669.50
2022-09-02T18:24:31.162Z,100671.53
2022-09-02T18:27:08.540Z,100670.31
2022-09-02T18:29:46.082Z,100666.38
2022-09-02T18:32:22.220Z,100669.50
2022-09-02T18:34:57.764Z,100669.81
2022-09-02T18:37:35.105Z,100676.84
2022-09-02T18:40:16.631Z,100676.63
2022-09-02T18:42:50.924Z,100681.25
2022-09-02T18:45:23.603Z,100681.66
2022-09-02T18:47:54.991Z,100689.22
2022-09-02T18:50:45.309Z,100690.38
2022-09-02T18:53:15.672Z,100689.28
2022-09-02T18:55:45.223Z,100687.88
2022-09-02T18:58:15.520Z,100694.63
2022-09-02T19:00:48.155Z,100698.56
2022-09-02T19:03:15.995Z,100691.66
2022-09-02T19:05:43.664Z,100697.75
2022-09-02T19:08:32.643Z,100703.13
2022-09-02T19:11:04.014Z,100706.78
2022-09-02T19:13:34.686Z,100703.19
2022-09-02T19:16:04.260Z,100703.69
2022-09-02T19:18:33.151Z,100709.63
2022-09-02T19:21:00.773Z,100699.97
2022-09-02T19:23:28.731Z,100710.00
2022-09-02T19:25:57.672Z,100699.06
2022-09-02T19:28:26.995Z,100703.00
2022-09-02T19:30:58.772Z,100705.31
2022-09-02T19:33:27.407Z,100697.69
2022-09-02T19:35:54.959Z,100697.19
2022-09-02T19:38:22.658Z,100710.94
2022-09-02T19:40:50.299Z,100706.78
2022-09-02T19:43:17.882Z,100717.88
2022-09-02T19:45:50.241Z,100716.19
2022-09-02T19:48:18.629Z,100714.53
2022-09-02T19:50:48.662Z,100727.81
2022-09-02T19:53:19.690Z,100722.50
2022-09-02T19:55:47.713Z,100723.19
2022-09-02T19:58:15.348Z,100718.56
2022-09-02T20:00:44.203Z,100719.84
2022-09-02T20:03:13.246Z,100720.03
2022-09-02T20:05:41.410Z,100715.94
2022-09-02T20:08:09.650Z,100725.59
2022-09-02T20:10:37.692Z,100725.44
2022-09-02T20:13:05.528Z,100723.84
2022-09-02T20:15:37.374Z,100722.59
2022-09-02T20:18:10.427Z,100717.16
2022-09-02T20:20:43.090Z,100723.66
2022-09-02T20:23:13.921Z,100724.84
2022-09-02T20:25:56.516Z,100729.03
2022-09-02T20:28:26.052Z,100720.31
2022-09-02T20:30:58.710Z,100724.84
2022-09-02T20:33:32.476Z,100732.41
2022-09-02T20:36:12.039Z,100727.22
2022-09-02T20:38:51.934Z,100723.84
2022-09-02T20:41:28.475Z,100724.69
2022-09-02T20:44:18.333Z,100726.31
2022-09-02T20:46:57.226Z,100722.78
2022-09-02T20:49:50.209Z,100717.94
2022-09-02T20:52:25.880Z,100719.50
2022-09-02T20:54:56.403Z,100723.19
2022-09-02T20:57:34.698Z,100716.56
2022-09-02T21:00:07.826Z,100722.56
2022-09-02T21:02:39.772Z,100728.41
2022-09-02T21:05:12.172Z,100726.72
2022-09-02T21:07:45.495Z,100728.16
2022-09-02T21:10:17.752Z,100729.47
2022-09-02T21:12:49.370Z,100726.69
2022-09-02T21:15:25.649Z,100719.16
2022-09-02T21:17:57.594Z,100725.47
2022-09-02T21:20:29.666Z,100733.97
2022-09-02T21:23:02.432Z,100726.19
2022-09-02T21:25:35.987Z,100718.94
2022-09-02T21:28:07.279Z,100722.44
2022-09-02T21:30:39.377Z,100730.09
2022-09-02T21:33:10.884Z,100721.97
2022-09-02T21:35:40.236Z,100726.69
2022-09-02T21:38:11.815Z,100723.78
2022-09-02T21:40:53.524Z,100727.66
2022-09-02T21:43:31.024Z,100722.56
2022-09-02T21:46:08.093Z,100722.31
2022-09-02T21:48:42.475Z,100725.50
2022-09-02T21:51:15.999Z,100720.03
2022-09-02T21:53:53.628Z,100720.03
2022-09-02T21:56:32.232Z,100723.53
2022-09-02T21:59:11.896Z,100721.84
2022-09-02T22:01:45.216Z,100718.56
2022-09-02T22:04:24.259Z,100716.53
2022-09-02T22:06:57.879Z,100726.91
2022-09-02T22:09:28.832Z,100717.31
2022-09-02T22:12:01.895Z,100718.81
2022-09-02T22:14:34.600Z,100723.72
2022-09-02T22:17:06.059Z,100721.56
2022-09-02T22:19:38.851Z,100721.47
2022-09-02T22:22:10.258Z,100714.31
2022-09-02T22:24:40.420Z,100721.06
2022-09-02T22:27:12.759Z,100722.53
2022-09-02T22:29:44.029Z,100721.66
2022-09-02T22:32:14.313Z,100717.97
2022-09-02T22:34:44.916Z,100719.84
2022-09-02T22:37:18.657Z,100721.56
2022-09-02T22:39:50.429Z,100720.72
2022-09-02T22:42:22.104Z,100721.78
2022-09-02T22:45:11.451Z,100722.25
2022-09-02T22:47:58.930Z,100720.72
2022-09-02T22:50:46.702Z,100719.84
2022-09-02T22:53:14.307Z,100712.81
2022-09-02T22:55:56.604Z,100711.13
2022-09-02T22:58:38.566Z,100704.22
2022-09-02T23:01:13.488Z,100715.25
2022-09-02T23:03:44.321Z,100711.34
2022-09-02T23:06:20.833Z,100705.25
2022-09-02T23:08:48.847Z,100707.56
2022-09-02T23:11:27.935Z,100704.19
2022-09-02T23:14:09.098Z,100709.03
2022-09-02T23:16:49.563Z,100707.28
2022-09-02T23:19:22.411Z,100695.03
2022-09-02T23:22:00.535Z,100701.09
2022-09-02T23:24:33.206Z,100701.84
2022-09-02T23:27:08.046Z,100695.78
2022-09-02T23:29:37.604Z,100693.44
2022-09-02T23:32:31.989Z,100693.06
2022-09-02T23:35:12.360Z,100695.88
2022-09-02T23:37:48.592Z,100689.47
2022-09-02T23:40:22.587Z,100701.56
2022-09-02T23:42:51.663Z,100684.47
2022-09-02T23:45:21.699Z,100686.78
2022-09-02T23:48:02.491Z,100683.66
2022-09-02T23:50:35.883Z,100691.81
2022-09-02T23:53:10.240Z,100685.38
2022-09-02T23:55:44.014Z,100682.28
2022-09-02T23:58:23.740Z,100683.56
